Pacific Solarelle — V7UB8 — position and weather

sailwx.info

Track history (hours):
 
Tides and Currents Weather Stations Pressure Air Temp Water Temp Dewpoint Dewpoint Depression Visibility Wind Speed Wind Dir Waves Ship Positions

Pacific Solarelle

Last reported at 2018-Apr-19 00:39 UTC. Time now 2018-Apr-19 15:47 UTC.
Position S 00°13' W 051°03'.

Length 180 m; draft 10.2 m.

Type: Tanker. MMSI: 538003925.

Date/timePositionNaut miles runAvg speedWind from/ knotsBaromVisibWave heightAir tempDewpointWater temp
2018-Apr-19 00:39S 00°13' W 051°03'1 9.3
2018-Apr-19 00:30S 00°12' W 051°02'4 8.4
2018-Apr-19 00:00S 00°08' W 051°01'5 9.1
2018-Apr-18 23:30S 00°03' W 051°00'4 7.3
2018-Apr-18 23:00N 00°00' W 051°01'5 8.6
2018-Apr-18 22:28N 00°05' W 050°59'5 9.7
2018-Apr-18 21:59N 00°08' W 050°57'510.5
2018-Apr-18 21:30N 00°10' W 050°52'190 6.9
2018-Apr-17 18:01N 00°08' W 047°42'112.3
2018-Apr-17 17:57N 00°07' W 047°42'612.8
2018-Apr-17 17:30N 00°01' W 047°44'612.9
2018-Apr-17 17:00S 00°05' W 047°46'713.4
2018-Apr-17 16:30S 00°11' W 047°48'612.7
2018-Apr-17 16:00S 00°17' W 047°49'611.6
2018-Apr-17 15:30S 00°22' W 047°46'3 5.8
2018-Apr-17 15:00S 00°23' W 047°43'510.2
2018-Apr-17 14:30S 00°21' W 047°39'612.1
2018-Apr-17 14:00S 00°19' W 047°33'713.0
2018-Apr-17 13:30S 00°17' W 047°27'713.2
2018-Apr-17 13:00S 00°15' W 047°21'  
Track history (hours):
 
Tides and Currents Weather Stations Pressure Air Temp Water Temp Dewpoint Dewpoint Depression Visibility Wind Speed Wind Dir Waves Ship Positions

Pacific Solarelle

Last reported at 2018-Apr-19 00:39 UTC. Time now 2018-Apr-19 15:47 UTC.
Position S 00°13' W 051°03'.

Length 180 m; draft 10.2 m.

Type: Tanker. MMSI: 538003925.

Date/timePositionNaut miles runAvg speedWind from/ knotsBaromVisibWave heightAir tempDewpointWater temp
2018-Apr-19 00:39S 00°13' W 051°03'1 9.3
2018-Apr-19 00:30S 00°12' W 051°02'4 8.4
2018-Apr-19 00:00S 00°08' W 051°01'5 9.1
2018-Apr-18 23:30S 00°03' W 051°00'4 7.3
2018-Apr-18 23:00N 00°00' W 051°01'5 8.6
2018-Apr-18 22:28N 00°05' W 050°59'5 9.7
2018-Apr-18 21:59N 00°08' W 050°57'510.5
2018-Apr-18 21:30N 00°10' W 050°52'190 6.9
2018-Apr-17 18:01N 00°08' W 047°42'112.3
2018-Apr-17 17:57N 00°07' W 047°42'612.8
2018-Apr-17 17:30N 00°01' W 047°44'612.9
2018-Apr-17 17:00S 00°05' W 047°46'713.4
2018-Apr-17 16:30S 00°11' W 047°48'612.7
2018-Apr-17 16:00S 00°17' W 047°49'611.6
2018-Apr-17 15:30S 00°22' W 047°46'3 5.8
2018-Apr-17 15:00S 00°23' W 047°43'510.2
2018-Apr-17 14:30S 00°21' W 047°39'612.1
2018-Apr-17 14:00S 00°19' W 047°33'713.0
2018-Apr-17 13:30S 00°17' W 047°27'713.2
2018-Apr-17 13:00S 00°15' W 047°21'  

Dump ship's entire track history